Piti, Guam
Current Conditions -  °F | °C
As of 12:54 PM on Thursday 27 Nov 2014 (Local Time) from PGUM Reporting Station
Broken Clouds Broken Clouds  
Wind Chill: 88°   Ceiling: 3500
Heat Index: 98°   Visibility: 10mi
Dew Point: 75°   Wind: 24mph
Humidity: 65%   Direction: 50°NE
Pressure: 29.84"   Gusts: 29mph
Location:  13.46°N, 144.69°E
Report Text: PGUM 270254Z 05021G25KT 10SM SCT028 BKN035 BKN044 31/24 A2984 RMK AO2 PK WND 05027/0228 SLP097 60000 T03110239 58023
Loading
Personal Weather Stations






























Interactive Weather Map New forecast layout! Learn more

10-Day Weather Forecast

Advertisements
Track Severe Weather on mobile